createdAt,value
2022-10-05T00:01:17.856Z,13.50
2022-10-05T00:03:47.114Z,13.50
2022-10-05T00:06:15.153Z,13.60
2022-10-05T00:08:43.745Z,13.70
2022-10-05T00:11:13.886Z,13.70
2022-10-05T00:13:41.933Z,13.70
2022-10-05T00:16:13.877Z,13.80
2022-10-05T00:18:42.028Z,13.80
2022-10-05T00:21:17.944Z,13.80
2022-10-05T00:23:45.869Z,13.80
2022-10-05T00:26:15.565Z,13.80
2022-10-05T00:28:46.042Z,13.80
2022-10-05T00:31:35.184Z,13.70
2022-10-05T00:34:03.203Z,13.60
2022-10-05T00:36:32.407Z,13.50
2022-10-05T00:39:01.560Z,13.40
2022-10-05T00:41:32.627Z,13.40
2022-10-05T00:44:16.709Z,13.40
2022-10-05T00:46:50.393Z,13.40
2022-10-05T00:49:25.609Z,13.40
2022-10-05T00:52:02.800Z,13.40
2022-10-05T00:54:34.694Z,13.30
2022-10-05T00:57:08.960Z,13.20
2022-10-05T00:59:43.800Z,13.20
2022-10-05T01:02:13.459Z,13.10
2022-10-05T01:04:45.209Z,13.10
2022-10-05T01:07:17.195Z,13.10
2022-10-05T01:09:50.258Z,13.10
2022-10-05T01:12:22.020Z,13.10
2022-10-05T01:14:53.597Z,13.10
2022-10-05T01:17:24.311Z,13.10
2022-10-05T01:20:03.737Z,13.10
2022-10-05T01:22:42.269Z,13.00
2022-10-05T01:25:21.982Z,13.00
2022-10-05T01:27:54.487Z,12.90
2022-10-05T01:30:23.121Z,12.90
2022-10-05T01:32:53.664Z,12.80
2022-10-05T01:35:27.235Z,12.80
2022-10-05T01:38:00.998Z,12.80
2022-10-05T01:40:32.084Z,12.80
2022-10-05T01:43:06.957Z,12.70
2022-10-05T01:45:42.937Z,12.70
2022-10-05T01:48:19.686Z,12.70
2022-10-05T01:50:51.836Z,12.70
2022-10-05T01:53:24.057Z,12.70
2022-10-05T01:55:56.067Z,12.60
2022-10-05T01:58:30.446Z,12.60
2022-10-05T02:01:01.731Z,12.60
2022-10-05T02:03:31.405Z,12.50
2022-10-05T02:06:01.154Z,12.40
2022-10-05T02:08:34.223Z,12.40
2022-10-05T02:11:03.544Z,12.40
2022-10-05T02:13:35.022Z,12.30
2022-10-05T02:16:04.247Z,12.30
2022-10-05T02:18:44.861Z,12.30
2022-10-05T02:21:12.692Z,12.30
2022-10-05T02:23:41.383Z,12.30
2022-10-05T02:26:10.133Z,12.20
2022-10-05T02:28:40.892Z,12.20
2022-10-05T02:31:10.416Z,12.20
2022-10-05T02:33:38.693Z,12.10
2022-10-05T02:36:12.153Z,12.10
2022-10-05T02:38:45.235Z,12.10
2022-10-05T02:41:17.938Z,12.10
2022-10-05T02:43:53.457Z,12.10
2022-10-05T02:46:29.013Z,12.10
2022-10-05T02:49:01.979Z,12.10
2022-10-05T02:51:34.592Z,12.00
2022-10-05T02:54:07.743Z,12.00
2022-10-05T02:56:38.357Z,12.00
2022-10-05T02:59:11.116Z,12.00
2022-10-05T03:01:42.489Z,12.00
2022-10-05T03:04:15.554Z,12.00
2022-10-05T03:06:48.037Z,12.00
2022-10-05T03:09:18.832Z,12.00
2022-10-05T03:11:49.377Z,12.00
2022-10-05T03:14:21.483Z,11.90
2022-10-05T03:16:56.071Z,11.90
2022-10-05T03:19:31.586Z,11.90
2022-10-05T03:22:02.789Z,11.90
2022-10-05T03:24:35.767Z,11.80
2022-10-05T03:27:06.353Z,11.80
2022-10-05T03:29:44.917Z,11.80
2022-10-05T03:32:17.517Z,11.80
2022-10-05T03:45:14.611Z,11.70
2022-10-05T03:51:10.355Z,11.60
2022-10-05T03:53:43.286Z,11.60
2022-10-05T03:56:23.597Z,11.60
2022-10-05T03:59:00.597Z,11.60
2022-10-05T04:01:48.307Z,11.60
2022-10-05T04:08:04.356Z,11.60
2022-10-05T04:17:24.013Z,11.50
2022-10-05T04:19:55.445Z,11.50
2022-10-05T04:22:31.335Z,11.50
2022-10-05T04:25:03.135Z,11.50
2022-10-05T04:27:33.237Z,11.50
2022-10-05T04:30:05.195Z,11.50
2022-10-05T04:32:37.562Z,11.50
2022-10-05T04:35:18.551Z,11.50
2022-10-05T04:37:48.390Z,11.50
2022-10-05T04:40:21.930Z,11.50
2022-10-05T04:42:55.688Z,11.50
2022-10-05T04:45:30.557Z,11.50
2022-10-05T04:48:31.600Z,11.60
2022-10-05T04:51:07.568Z,11.60
2022-10-05T04:53:36.848Z,11.60
2022-10-05T04:56:09.004Z,11.70
2022-10-05T04:58:49.010Z,11.70
2022-10-05T05:01:24.442Z,11.80
2022-10-05T05:04:09.997Z,11.80
2022-10-05T05:06:41.176Z,11.90
2022-10-05T05:09:16.241Z,11.90
2022-10-05T05:11:49.558Z,11.90
2022-10-05T05:14:26.656Z,12.00
2022-10-05T05:17:02.129Z,11.90
2022-10-05T05:19:34.788Z,11.90
2022-10-05T05:22:04.921Z,12.00
2022-10-05T05:24:41.938Z,12.00
2022-10-05T05:27:20.524Z,12.10
2022-10-05T05:29:53.887Z,12.10
2022-10-05T05:32:26.938Z,12.20
2022-10-05T05:35:02.353Z,12.20
2022-10-05T05:37:33.526Z,12.30
2022-10-05T05:40:04.638Z,12.40
2022-10-05T05:42:36.886Z,12.50
2022-10-05T05:45:09.230Z,12.50
2022-10-05T05:47:40.215Z,12.70
2022-10-05T05:50:18.594Z,12.70
2022-10-05T05:52:47.911Z,12.80
2022-10-05T05:55:18.950Z,12.80
2022-10-05T05:57:49.745Z,12.90
2022-10-05T06:00:21.673Z,12.90
2022-10-05T06:02:54.990Z,13.00
2022-10-05T06:05:28.778Z,13.10
2022-10-05T06:07:58.488Z,13.20
2022-10-05T06:10:29.339Z,13.30
2022-10-05T06:13:01.564Z,13.50
2022-10-05T06:15:31.973Z,13.70
2022-10-05T06:18:03.675Z,13.90
2022-10-05T06:20:36.700Z,14.00
2022-10-05T06:23:07.507Z,14.20
2022-10-05T06:25:38.795Z,14.30
2022-10-05T06:28:10.624Z,14.40
2022-10-05T06:30:46.039Z,14.60
2022-10-05T06:33:20.535Z,14.70
2022-10-05T06:35:54.080Z,14.80
2022-10-05T06:38:32.563Z,14.90
2022-10-05T06:41:05.260Z,15.00
2022-10-05T06:43:37.954Z,15.20
2022-10-05T06:46:09.186Z,15.30
2022-10-05T06:48:47.090Z,15.40
2022-10-05T06:51:23.292Z,15.50
2022-10-05T06:53:57.754Z,15.60
2022-10-05T06:56:29.266Z,15.70
2022-10-05T06:59:00.591Z,15.80
2022-10-05T07:01:39.857Z,15.90
2022-10-05T07:04:20.104Z,16.00
2022-10-05T07:06:52.135Z,16.20
2022-10-05T07:09:26.736Z,16.30
2022-10-05T07:12:05.414Z,16.40
2022-10-05T07:14:42.591Z,16.50
2022-10-05T07:17:17.340Z,16.50
2022-10-05T07:19:52.532Z,16.50
2022-10-05T07:22:26.625Z,16.60
2022-10-05T07:25:00.335Z,16.70
2022-10-05T07:27:30.150Z,16.80
2022-10-05T07:30:00.402Z,16.90
2022-10-05T07:32:33.274Z,17.00
2022-10-05T07:35:06.043Z,17.00
2022-10-05T07:37:55.585Z,17.00
2022-10-05T07:40:27.686Z,17.00
2022-10-05T07:43:10.362Z,17.20
2022-10-05T07:45:41.097Z,17.20
2022-10-05T07:48:15.241Z,17.20
2022-10-05T07:50:54.464Z,17.20
2022-10-05T07:53:25.518Z,17.20
2022-10-05T07:55:54.544Z,17.30
2022-10-05T07:58:27.636Z,17.30
2022-10-05T08:01:04.127Z,17.30
2022-10-05T08:03:36.110Z,17.40
2022-10-05T08:06:06.674Z,17.40
2022-10-05T08:08:39.548Z,17.60
2022-10-05T08:11:14.597Z,17.60
2022-10-05T08:13:47.651Z,17.70
2022-10-05T08:16:16.787Z,17.70
2022-10-05T08:18:50.028Z,17.80
2022-10-05T08:21:21.968Z,17.80
2022-10-05T08:23:51.691Z,17.90
2022-10-05T08:26:23.621Z,17.90
2022-10-05T08:28:56.318Z,18.00
2022-10-05T08:31:26.828Z,18.10
2022-10-05T08:33:58.653Z,18.10
2022-10-05T08:36:34.815Z,18.10
2022-10-05T08:39:04.227Z,18.20
2022-10-05T08:41:54.282Z,18.20
2022-10-05T08:44:46.184Z,18.10
2022-10-05T08:47:20.572Z,18.10
2022-10-05T08:50:18.600Z,18.10
2022-10-05T08:53:00.557Z,18.10
2022-10-05T08:55:32.112Z,18.20
2022-10-05T08:58:14.773Z,18.40
2022-10-05T09:00:48.912Z,18.50
2022-10-05T09:03:22.438Z,18.60
2022-10-05T09:06:07.160Z,18.70
2022-10-05T09:08:59.154Z,19.00
2022-10-05T09:11:34.002Z,19.30
2022-10-05T09:14:15.483Z,19.60
2022-10-05T09:16:51.322Z,19.90
2022-10-05T09:19:33.974Z,20.20
2022-10-05T09:22:06.736Z,20.30
2022-10-05T09:24:48.493Z,20.50
2022-10-05T09:27:19.128Z,20.60
2022-10-05T09:30:01.911Z,20.70
2022-10-05T09:32:54.995Z,20.70
2022-10-05T09:35:33.119Z,20.70
2022-10-05T09:38:11.853Z,20.50
2022-10-05T09:40:50.749Z,20.30
2022-10-05T09:43:33.576Z,20.30
2022-10-05T09:46:19.366Z,20.40
2022-10-05T09:48:53.356Z,20.30
2022-10-05T09:51:36.006Z,20.20
2022-10-05T09:54:25.807Z,20.20
2022-10-05T09:57:04.163Z,20.20
2022-10-05T09:59:49.681Z,20.20
2022-10-05T10:02:27.659Z,20.20
2022-10-05T10:05:05.649Z,20.20
2022-10-05T10:07:42.424Z,20.30
2022-10-05T10:10:29.431Z,20.40
2022-10-05T10:13:06.168Z,20.40
2022-10-05T10:15:38.442Z,20.40
2022-10-05T10:18:18.817Z,20.40
2022-10-05T10:21:01.541Z,20.40
2022-10-05T10:23:50.660Z,20.40
2022-10-05T10:26:33.300Z,20.40
2022-10-05T10:29:20.814Z,20.40
2022-10-05T10:31:54.107Z,20.40
2022-10-05T10:34:45.397Z,20.40
2022-10-05T10:37:33.657Z,20.50
2022-10-05T10:40:08.290Z,20.60
2022-10-05T10:42:40.448Z,20.60
2022-10-05T10:45:20.663Z,20.60
2022-10-05T10:47:52.763Z,20.60
2022-10-05T10:50:41.475Z,20.60
2022-10-05T10:53:19.712Z,20.60
2022-10-05T10:55:51.761Z,20.70
2022-10-05T10:58:49.910Z,20.80
2022-10-05T11:01:27.861Z,20.90
2022-10-05T11:04:25.887Z,20.90
2022-10-05T11:07:12.686Z,20.90
2022-10-05T11:09:54.655Z,21.00
2022-10-05T11:12:35.841Z,21.10
2022-10-05T11:15:10.097Z,21.20
2022-10-05T11:17:46.944Z,21.30
2022-10-05T11:20:35.636Z,21.40
2022-10-05T11:23:15.304Z,21.40
2022-10-05T11:25:50.087Z,21.60
2022-10-05T11:28:36.278Z,21.70
2022-10-05T11:31:19.122Z,22.00
2022-10-05T11:34:05.281Z,22.00
2022-10-05T11:36:49.118Z,22.00
2022-10-05T11:39:38.771Z,22.20
2022-10-05T11:42:39.663Z,22.20
2022-10-05T11:45:21.808Z,22.10
2022-10-05T11:48:16.304Z,22.00
2022-10-05T11:50:50.869Z,22.00
2022-10-05T11:53:24.332Z,22.00
2022-10-05T11:55:58.068Z,22.00
2022-10-05T11:58:29.438Z,22.20
2022-10-05T12:01:02.771Z,22.20
2022-10-05T12:03:44.035Z,22.30
2022-10-05T12:06:17.021Z,22.40
2022-10-05T12:08:53.126Z,22.70
2022-10-05T12:11:34.277Z,22.80
2022-10-05T12:14:06.242Z,23.00
2022-10-05T12:16:38.895Z,23.00
2022-10-05T12:19:10.927Z,23.00
2022-10-05T12:21:43.042Z,23.10
2022-10-05T12:24:15.288Z,23.10
2022-10-05T12:26:47.253Z,23.10
2022-10-05T12:29:18.044Z,23.20
2022-10-05T12:31:55.804Z,23.30
2022-10-05T12:34:27.908Z,23.30
2022-10-05T12:37:03.898Z,23.10
2022-10-05T12:39:38.106Z,23.10
2022-10-05T12:42:12.809Z,23.10
2022-10-05T12:44:49.829Z,23.20
2022-10-05T12:47:23.869Z,23.20
2022-10-05T12:49:58.920Z,23.20
2022-10-05T12:52:38.253Z,23.10
2022-10-05T12:55:11.599Z,23.10
2022-10-05T12:57:44.154Z,23.10
2022-10-05T13:00:18.946Z,23.20
2022-10-05T13:02:52.109Z,23.30
2022-10-05T13:05:24.964Z,23.40
2022-10-05T13:08:13.014Z,23.40
2022-10-05T13:10:44.354Z,23.30
2022-10-05T13:13:17.002Z,23.30
2022-10-05T13:15:52.673Z,23.50
2022-10-05T13:18:27.308Z,23.60
2022-10-05T13:21:02.780Z,23.50
2022-10-05T13:23:38.441Z,23.60
2022-10-05T13:26:08.815Z,23.50
2022-10-05T13:28:38.808Z,23.60
2022-10-05T13:31:08.308Z,23.60
2022-10-05T13:33:55.353Z,23.50
2022-10-05T13:36:25.813Z,23.40
2022-10-05T13:39:10.650Z,23.40
2022-10-05T13:41:50.780Z,23.50
2022-10-05T13:44:21.079Z,23.60
2022-10-05T13:46:49.847Z,23.80
2022-10-05T13:49:26.373Z,23.90
2022-10-05T13:51:57.418Z,24.00
2022-10-05T13:54:31.399Z,23.90
2022-10-05T13:57:04.034Z,23.80
2022-10-05T13:59:34.190Z,23.80
2022-10-05T14:02:03.501Z,23.80
2022-10-05T14:04:44.433Z,23.70
2022-10-05T14:07:21.790Z,23.70
2022-10-05T14:09:50.289Z,23.60
2022-10-05T14:12:21.432Z,23.60
2022-10-05T14:14:50.711Z,23.50
2022-10-05T14:17:32.880Z,23.60
2022-10-05T14:20:04.160Z,23.50
2022-10-05T14:22:41.656Z,23.60
2022-10-05T14:25:17.118Z,23.50
2022-10-05T14:27:50.610Z,23.50
2022-10-05T14:30:20.325Z,23.50
2022-10-05T14:32:50.478Z,23.50
2022-10-05T14:35:22.164Z,23.60
2022-10-05T14:37:57.254Z,23.70
2022-10-05T14:40:26.960Z,23.70
2022-10-05T14:42:54.782Z,23.70
2022-10-05T14:45:23.864Z,23.60
2022-10-05T14:47:52.929Z,23.60
2022-10-05T14:50:26.214Z,23.60
2022-10-05T14:53:16.672Z,23.60
2022-10-05T14:55:52.987Z,23.60
2022-10-05T14:58:29.155Z,23.50
2022-10-05T15:00:59.437Z,23.40
2022-10-05T15:03:31.338Z,23.50
2022-10-05T15:06:02.146Z,23.50
2022-10-05T15:08:42.514Z,23.50
2022-10-05T15:11:17.493Z,23.60
2022-10-05T15:13:47.557Z,23.50
2022-10-05T15:16:18.657Z,23.50
2022-10-05T15:18:50.022Z,23.40
2022-10-05T15:21:31.143Z,23.30
2022-10-05T15:24:02.119Z,23.30
2022-10-05T15:26:36.257Z,23.20
2022-10-05T15:29:11.028Z,23.20
2022-10-05T15:31:41.958Z,23.20
2022-10-05T15:34:12.877Z,23.20
2022-10-05T15:36:44.227Z,23.20
2022-10-05T15:39:16.720Z,23.10
2022-10-05T15:41:52.953Z,23.10
2022-10-05T15:44:27.463Z,23.00
2022-10-05T15:46:58.208Z,22.90
2022-10-05T15:49:30.202Z,22.90
2022-10-05T15:52:03.384Z,22.80
2022-10-05T15:54:57.873Z,22.70
2022-10-05T15:57:26.867Z,22.70
2022-10-05T15:59:58.880Z,22.70
2022-10-05T16:02:44.541Z,22.60
2022-10-05T16:05:41.666Z,22.50
2022-10-05T16:08:30.854Z,22.60
2022-10-05T16:10:59.132Z,22.50
2022-10-05T16:13:30.113Z,22.50
2022-10-05T16:16:01.975Z,22.50
2022-10-05T16:18:37.272Z,22.40
2022-10-05T16:21:10.938Z,22.40
2022-10-05T16:23:44.474Z,22.40
2022-10-05T16:26:19.265Z,22.40
2022-10-05T16:28:51.002Z,22.30
2022-10-05T16:31:21.454Z,22.30
2022-10-05T16:33:55.782Z,22.20
2022-10-05T16:36:28.261Z,22.20
2022-10-05T16:39:01.235Z,22.20
2022-10-05T16:41:34.894Z,22.10
2022-10-05T16:44:08.458Z,22.10
2022-10-05T16:46:40.751Z,22.00
2022-10-05T16:49:14.296Z,22.00
2022-10-05T16:51:47.141Z,21.90
2022-10-05T16:54:19.316Z,21.90
2022-10-05T16:56:50.964Z,21.90
2022-10-05T16:59:36.080Z,21.80
2022-10-05T17:02:09.538Z,21.80
2022-10-05T17:04:44.946Z,21.70
2022-10-05T17:07:21.348Z,21.70
2022-10-05T17:10:04.649Z,21.60
2022-10-05T17:12:42.894Z,21.60
2022-10-05T17:15:26.304Z,21.50
2022-10-05T17:18:01.318Z,21.50
2022-10-05T17:20:44.115Z,21.40
2022-10-05T17:23:23.923Z,21.30
2022-10-05T17:25:55.170Z,21.30
2022-10-05T17:28:24.958Z,21.30
2022-10-05T17:31:08.286Z,21.20
2022-10-05T17:33:58.988Z,21.20
2022-10-05T17:36:37.481Z,21.20
2022-10-05T17:39:22.555Z,21.10
2022-10-05T17:41:51.879Z,21.10
2022-10-05T17:44:21.294Z,21.10
2022-10-05T17:46:50.478Z,21.00
2022-10-05T17:49:23.132Z,21.00
2022-10-05T17:52:16.335Z,21.00
2022-10-05T17:55:32.673Z,21.00
2022-10-05T17:58:22.804Z,20.90
2022-10-05T18:01:08.705Z,20.90
2022-10-05T18:03:41.316Z,20.90
2022-10-05T18:06:42.469Z,20.90
2022-10-05T18:09:32.140Z,20.80
2022-10-05T18:12:17.837Z,20.80
2022-10-05T18:14:57.579Z,20.70
2022-10-05T18:17:48.458Z,20.70
2022-10-05T18:20:19.603Z,20.70
2022-10-05T18:22:47.908Z,20.70
2022-10-05T18:25:29.221Z,20.70
2022-10-05T18:28:07.901Z,20.70
2022-10-05T18:30:41.657Z,20.70
2022-10-05T18:33:53.302Z,20.70
2022-10-05T18:36:55.579Z,20.70
2022-10-05T18:39:31.096Z,20.60
2022-10-05T18:42:03.841Z,20.60
2022-10-05T18:44:35.411Z,20.60
2022-10-05T18:47:08.283Z,20.60
2022-10-05T18:49:40.409Z,20.60
2022-10-05T18:52:12.810Z,20.50
2022-10-05T19:01:03.594Z,20.40
2022-10-05T19:03:37.851Z,20.40
2022-10-05T19:06:13.400Z,20.40
2022-10-05T19:08:47.251Z,20.40
2022-10-05T19:11:19.021Z,20.30
2022-10-05T19:13:52.037Z,20.30
2022-10-05T19:16:32.595Z,20.30
2022-10-05T19:19:08.980Z,20.30
2022-10-05T19:21:41.567Z,20.30
2022-10-05T19:24:14.936Z,20.20
2022-10-05T19:26:53.681Z,20.10
2022-10-05T19:29:27.280Z,20.10
2022-10-05T19:31:57.977Z,20.00
2022-10-05T19:34:33.941Z,20.10
2022-10-05T19:37:05.416Z,20.00
2022-10-05T19:39:37.375Z,20.10
2022-10-05T19:42:15.434Z,20.00
2022-10-05T19:44:52.319Z,20.00
2022-10-05T19:47:29.323Z,20.00
2022-10-05T19:50:03.548Z,19.90
2022-10-05T19:52:39.582Z,19.90
2022-10-05T19:55:12.833Z,19.90
2022-10-05T19:57:47.091Z,19.90
2022-10-05T20:00:20.807Z,19.80
2022-10-05T20:02:50.695Z,19.80
2022-10-05T20:05:20.158Z,19.90
2022-10-05T20:07:48.096Z,19.80
2022-10-05T20:10:24.426Z,19.80
2022-10-05T20:12:53.131Z,19.80
2022-10-05T20:15:39.442Z,19.80
2022-10-05T20:18:42.923Z,19.90
2022-10-05T20:21:25.603Z,19.90
2022-10-05T20:24:08.564Z,19.90
2022-10-05T20:26:58.074Z,19.90
2022-10-05T20:29:26.012Z,19.80
2022-10-05T20:31:53.919Z,19.90
2022-10-05T20:34:23.180Z,19.90
2022-10-05T20:36:51.323Z,19.90
2022-10-05T20:39:21.511Z,19.90
2022-10-05T20:41:52.592Z,20.00
2022-10-05T20:44:20.558Z,20.00
2022-10-05T20:46:59.362Z,20.00
2022-10-05T20:49:35.886Z,20.00
2022-10-05T20:52:10.250Z,20.10
2022-10-05T20:54:39.965Z,20.10
2022-10-05T20:57:08.247Z,20.10
2022-10-05T20:59:36.758Z,20.10
2022-10-05T21:02:04.633Z,20.10
2022-10-05T21:04:40.022Z,20.10
2022-10-05T21:07:09.076Z,20.20
2022-10-05T21:09:38.426Z,20.20
2022-10-05T21:12:08.857Z,20.20
2022-10-05T21:14:37.794Z,20.20
2022-10-05T21:17:06.196Z,20.20
2022-10-05T21:19:38.397Z,20.20
2022-10-05T21:22:07.695Z,20.20
2022-10-05T21:24:36.066Z,20.20
2022-10-05T21:27:05.843Z,20.20
2022-10-05T21:29:36.425Z,20.10
2022-10-05T21:32:08.332Z,20.10
2022-10-05T21:34:36.270Z,20.10
2022-10-05T21:37:04.122Z,20.10
2022-10-05T21:39:33.528Z,20.10
2022-10-05T21:42:01.546Z,20.10
2022-10-05T21:44:29.341Z,20.10
2022-10-05T21:46:58.518Z,20.10
2022-10-05T21:49:26.944Z,20.10
2022-10-05T21:51:55.062Z,20.10
2022-10-05T21:54:23.460Z,20.10
2022-10-05T21:56:52.230Z,20.10
2022-10-05T21:59:21.353Z,20.20
2022-10-05T22:01:49.189Z,20.20
2022-10-05T22:04:18.913Z,20.30
2022-10-05T22:06:46.678Z,20.30
2022-10-05T22:09:14.534Z,20.30
2022-10-05T22:11:42.409Z,20.30
2022-10-05T22:14:10.503Z,20.40
2022-10-05T22:16:39.093Z,20.40
2022-10-05T22:19:07.861Z,20.40
2022-10-05T22:21:43.412Z,20.50
2022-10-05T22:24:13.676Z,20.40
2022-10-05T22:26:42.603Z,20.40
2022-10-05T22:29:10.676Z,20.40
2022-10-05T22:31:39.344Z,20.30
2022-10-05T22:34:07.147Z,20.30
2022-10-05T22:36:35.445Z,20.30
2022-10-05T22:39:05.017Z,20.30
2022-10-05T22:41:32.844Z,20.30
2022-10-05T22:44:00.937Z,20.30
2022-10-05T22:46:28.864Z,20.40
2022-10-05T22:48:56.767Z,20.50
2022-10-05T22:51:24.743Z,20.50
2022-10-05T22:53:52.713Z,20.50
2022-10-05T22:56:21.911Z,20.50
2022-10-05T22:58:51.037Z,20.60
2022-10-05T23:01:19.691Z,20.60
2022-10-05T23:03:47.741Z,20.60
2022-10-05T23:06:17.004Z,20.60
2022-10-05T23:08:45.076Z,20.70
2022-10-05T23:11:13.930Z,20.70
2022-10-05T23:13:43.320Z,20.70
2022-10-05T23:16:12.090Z,20.80
2022-10-05T23:18:40.406Z,20.80
2022-10-05T23:21:09.047Z,20.80
2022-10-05T23:23:37.076Z,20.80
2022-10-05T23:26:05.583Z,20.90
2022-10-05T23:28:34.125Z,20.90
2022-10-05T23:31:04.339Z,20.90
2022-10-05T23:33:32.191Z,21.00
2022-10-05T23:36:00.673Z,21.00
2022-10-05T23:38:28.744Z,21.00
2022-10-05T23:40:58.656Z,21.00
2022-10-05T23:43:28.469Z,21.00
2022-10-05T23:45:56.786Z,21.00
2022-10-05T23:48:26.910Z,21.00
2022-10-05T23:50:55.752Z,21.00
2022-10-05T23:53:23.877Z,21.00
2022-10-05T23:55:52.070Z,21.00
2022-10-05T23:58:34.266Z,21.00
